sensor_id;sensor_type;location;lat;lon;timestamp;temperature;humidity
24162;DHT22;12318;51.262;7.066;2023-01-09T00:00:53;8.20;99.90
24162;DHT22;12318;51.262;7.066;2023-01-09T00:03:19;8.20;99.90
24162;DHT22;12318;51.262;7.066;2023-01-09T00:05:45;8.20;99.90
24162;DHT22;12318;51.262;7.066;2023-01-09T00:08:11;8.10;99.90
24162;DHT22;12318;51.262;7.066;2023-01-09T00:10:37;8.00;99.90
24162;DHT22;12318;51.262;7.066;2023-01-09T00:13:02;8.00;99.90
24162;DHT22;12318;51.262;7.066;2023-01-09T00:15:29;7.90;99.90
24162;DHT22;12318;51.262;7.066;2023-01-09T00:17:55;8.00;99.90
24162;DHT22;12318;51.262;7.066;2023-01-09T00:20:21;8.00;99.90
24162;DHT22;12318;51.262;7.066;2023-01-09T00:22:48;7.90;99.90
24162;DHT22;12318;51.262;7.066;2023-01-09T00:25:15;7.90;99.90
24162;DHT22;12318;51.262;7.066;2023-01-09T00:27:42;7.90;99.90
24162;DHT22;12318;51.262;7.066;2023-01-09T00:30:09;7.90;99.90
24162;DHT22;12318;51.262;7.066;2023-01-09T00:32:36;7.90;99.90
24162;DHT22;12318;51.262;7.066;2023-01-09T00:35:03;7.80;99.90
24162;DHT22;12318;51.262;7.066;2023-01-09T00:37:28;7.80;99.90
24162;DHT22;12318;51.262;7.066;2023-01-09T00:39:54;7.70;99.90
24162;DHT22;12318;51.262;7.066;2023-01-09T00:42:25;7.70;99.90
24162;DHT22;12318;51.262;7.066;2023-01-09T00:44:57;7.70;99.90
24162;DHT22;12318;51.262;7.066;2023-01-09T00:47:41;7.70;99.90
24162;DHT22;12318;51.262;7.066;2023-01-09T00:50:21;7.60;99.90
24162;DHT22;12318;51.262;7.066;2023-01-09T00:52:50;7.60;99.90
24162;DHT22;12318;51.262;7.066;2023-01-09T00:55:19;7.60;99.90
24162;DHT22;12318;51.262;7.066;2023-01-09T00:57:47;7.60;99.90
24162;DHT22;12318;51.262;7.066;2023-01-09T01:00:13;7.60;99.90
24162;DHT22;12318;51.262;7.066;2023-01-09T01:02:40;7.60;99.90
24162;DHT22;12318;51.262;7.066;2023-01-09T01:05:06;7.60;99.90
24162;DHT22;12318;51.262;7.066;2023-01-09T01:07:51;7.50;99.90
24162;DHT22;12318;51.262;7.066;2023-01-09T01:10:23;7.50;99.90
24162;DHT22;12318;51.262;7.066;2023-01-09T01:12:51;7.40;99.90
24162;DHT22;12318;51.262;7.066;2023-01-09T01:15:18;7.40;99.90
24162;DHT22;12318;51.262;7.066;2023-01-09T01:17:46;7.40;99.90
24162;DHT22;12318;51.262;7.066;2023-01-09T01:20:15;7.40;99.90
24162;DHT22;12318;51.262;7.066;2023-01-09T01:22:41;7.40;99.90
24162;DHT22;12318;51.262;7.066;2023-01-09T01:25:07;7.40;99.90
24162;DHT22;12318;51.262;7.066;2023-01-09T01:27:33;7.30;99.90
24162;DHT22;12318;51.262;7.066;2023-01-09T01:29:59;7.20;99.90
24162;DHT22;12318;51.262;7.066;2023-01-09T01:32:30;7.30;99.90
24162;DHT22;12318;51.262;7.066;2023-01-09T01:34:56;7.20;99.90
24162;DHT22;12318;51.262;7.066;2023-01-09T01:37:21;7.20;99.90
24162;DHT22;12318;51.262;7.066;2023-01-09T01:39:52;7.20;99.90
24162;DHT22;12318;51.262;7.066;2023-01-09T01:42:22;7.10;99.90
24162;DHT22;12318;51.262;7.066;2023-01-09T01:47:33;7.20;99.90
24162;DHT22;12318;51.262;7.066;2023-01-09T01:53:16;7.30;99.90
24162;DHT22;12318;51.262;7.066;2023-01-09T01:55:54;7.20;99.90
24162;DHT22;12318;51.262;7.066;2023-01-09T01:58:25;7.30;99.90
24162;DHT22;12318;51.262;7.066;2023-01-09T02:00:51;7.20;99.90
24162;DHT22;12318;51.262;7.066;2023-01-09T02:03:22;7.20;99.90
24162;DHT22;12318;51.262;7.066;2023-01-09T02:05:49;7.20;99.90
24162;DHT22;12318;51.262;7.066;2023-01-09T02:08:16;7.20;99.90
24162;DHT22;12318;51.262;7.066;2023-01-09T02:10:44;7.10;99.90
24162;DHT22;12318;51.262;7.066;2023-01-09T02:13:11;7.20;99.90
24162;DHT22;12318;51.262;7.066;2023-01-09T02:21:40;7.30;99.90
24162;DHT22;12318;51.262;7.066;2023-01-09T02:30:31;7.30;99.90
24162;DHT22;12318;51.262;7.066;2023-01-09T02:33:19;7.30;99.90
24162;DHT22;12318;51.262;7.066;2023-01-09T02:36:11;7.30;99.90
24162;DHT22;12318;51.262;7.066;2023-01-09T02:41:12;7.30;99.90
24162;DHT22;12318;51.262;7.066;2023-01-09T02:43:40;7.30;99.90
24162;DHT22;12318;51.262;7.066;2023-01-09T02:46:20;7.30;99.90
24162;DHT22;12318;51.262;7.066;2023-01-09T02:48:51;7.30;99.90
24162;DHT22;12318;51.262;7.066;2023-01-09T02:51:44;7.30;99.90
24162;DHT22;12318;51.262;7.066;2023-01-09T02:57:53;7.40;99.90
24162;DHT22;12318;51.262;7.066;2023-01-09T03:08:45;7.30;99.90
24162;DHT22;12318;51.262;7.066;2023-01-09T03:11:11;7.30;99.90
24162;DHT22;12318;51.262;7.066;2023-01-09T03:13:42;7.30;99.90
24162;DHT22;12318;51.262;7.066;2023-01-09T03:16:13;7.30;99.90
24162;DHT22;12318;51.262;7.066;2023-01-09T03:18:41;7.30;99.90
24162;DHT22;12318;51.262;7.066;2023-01-09T03:21:09;7.30;99.90
24162;DHT22;12318;51.262;7.066;2023-01-09T03:23:55;7.20;99.90
24162;DHT22;12318;51.262;7.066;2023-01-09T03:26:22;7.30;99.90
24162;DHT22;12318;51.262;7.066;2023-01-09T03:28:49;7.30;99.90
24162;DHT22;12318;51.262;7.066;2023-01-09T03:31:15;7.30;99.90
24162;DHT22;12318;51.262;7.066;2023-01-09T03:33:41;7.30;99.90
24162;DHT22;12318;51.262;7.066;2023-01-09T03:36:11;7.40;99.90
24162;DHT22;12318;51.262;7.066;2023-01-09T03:38:38;7.40;99.90
24162;DHT22;12318;51.262;7.066;2023-01-09T03:41:05;7.40;99.90
24162;DHT22;12318;51.262;7.066;2023-01-09T03:43:31;7.40;99.90
24162;DHT22;12318;51.262;7.066;2023-01-09T03:45:58;7.30;99.90
24162;DHT22;12318;51.262;7.066;2023-01-09T03:48:26;7.30;99.90
24162;DHT22;12318;51.262;7.066;2023-01-09T03:50:53;7.30;99.90
24162;DHT22;12318;51.262;7.066;2023-01-09T03:53:22;7.30;99.90
24162;DHT22;12318;51.262;7.066;2023-01-09T03:55:51;7.30;99.90
24162;DHT22;12318;51.262;7.066;2023-01-09T03:58:19;7.20;99.90
24162;DHT22;12318;51.262;7.066;2023-01-09T04:00:47;7.20;99.90
24162;DHT22;12318;51.262;7.066;2023-01-09T04:03:14;7.20;99.90
24162;DHT22;12318;51.262;7.066;2023-01-09T04:05:42;7.20;99.90
24162;DHT22;12318;51.262;7.066;2023-01-09T04:08:09;7.20;99.90
24162;DHT22;12318;51.262;7.066;2023-01-09T04:10:35;7.20;99.90
24162;DHT22;12318;51.262;7.066;2023-01-09T04:13:03;7.10;99.90
24162;DHT22;12318;51.262;7.066;2023-01-09T04:15:29;7.10;99.90
24162;DHT22;12318;51.262;7.066;2023-01-09T04:17:56;7.10;99.90
24162;DHT22;12318;51.262;7.066;2023-01-09T04:20:21;7.00;99.90
24162;DHT22;12318;51.262;7.066;2023-01-09T04:22:47;6.90;99.90
24162;DHT22;12318;51.262;7.066;2023-01-09T04:25:14;6.90;99.90
24162;DHT22;12318;51.262;7.066;2023-01-09T04:27:39;6.80;99.90
24162;DHT22;12318;51.262;7.066;2023-01-09T04:30:08;6.60;99.90
24162;DHT22;12318;51.262;7.066;2023-01-09T04:32:37;6.70;99.90
24162;DHT22;12318;51.262;7.066;2023-01-09T04:35:03;6.50;99.90
24162;DHT22;12318;51.262;7.066;2023-01-09T04:37:29;6.50;99.90
24162;DHT22;12318;51.262;7.066;2023-01-09T04:39:55;6.50;99.90
24162;DHT22;12318;51.262;7.066;2023-01-09T04:42:24;6.50;99.90
24162;DHT22;12318;51.262;7.066;2023-01-09T04:44:50;6.50;99.90
24162;DHT22;12318;51.262;7.066;2023-01-09T04:47:20;6.50;99.90
24162;DHT22;12318;51.262;7.066;2023-01-09T04:49:47;6.40;99.90
24162;DHT22;12318;51.262;7.066;2023-01-09T04:52:15;6.30;99.90
24162;DHT22;12318;51.262;7.066;2023-01-09T04:54:42;6.30;99.90
24162;DHT22;12318;51.262;7.066;2023-01-09T04:57:08;6.30;99.90
24162;DHT22;12318;51.262;7.066;2023-01-09T04:59:34;6.20;99.90
24162;DHT22;12318;51.262;7.066;2023-01-09T05:02:01;6.20;99.90
24162;DHT22;12318;51.262;7.066;2023-01-09T05:04:26;6.10;99.90
24162;DHT22;12318;51.262;7.066;2023-01-09T05:06:59;6.20;99.90
24162;DHT22;12318;51.262;7.066;2023-01-09T05:09:25;6.10;99.90
24162;DHT22;12318;51.262;7.066;2023-01-09T05:11:51;6.10;99.90
24162;DHT22;12318;51.262;7.066;2023-01-09T05:14:17;6.10;99.90
24162;DHT22;12318;51.262;7.066;2023-01-09T05:16:44;6.20;99.90
24162;DHT22;12318;51.262;7.066;2023-01-09T05:19:11;6.20;99.90
24162;DHT22;12318;51.262;7.066;2023-01-09T05:21:38;6.20;99.90
24162;DHT22;12318;51.262;7.066;2023-01-09T05:24:05;6.20;99.90
24162;DHT22;12318;51.262;7.066;2023-01-09T05:26:34;6.30;99.90
24162;DHT22;12318;51.262;7.066;2023-01-09T05:29:01;6.30;99.90
24162;DHT22;12318;51.262;7.066;2023-01-09T05:31:28;6.30;99.90
24162;DHT22;12318;51.262;7.066;2023-01-09T05:33:55;6.30;99.90
24162;DHT22;12318;51.262;7.066;2023-01-09T05:36:24;6.30;99.90
24162;DHT22;12318;51.262;7.066;2023-01-09T05:38:50;6.30;99.90
24162;DHT22;12318;51.262;7.066;2023-01-09T05:41:15;6.40;99.90
24162;DHT22;12318;51.262;7.066;2023-01-09T05:43:41;6.40;99.90
24162;DHT22;12318;51.262;7.066;2023-01-09T05:46:07;6.40;99.90
24162;DHT22;12318;51.262;7.066;2023-01-09T05:48:34;6.40;99.90
24162;DHT22;12318;51.262;7.066;2023-01-09T05:51:01;6.40;99.90
24162;DHT22;12318;51.262;7.066;2023-01-09T05:53:28;6.40;99.90
24162;DHT22;12318;51.262;7.066;2023-01-09T05:55:56;6.40;99.90
24162;DHT22;12318;51.262;7.066;2023-01-09T05:58:43;6.40;99.90
24162;DHT22;12318;51.262;7.066;2023-01-09T06:01:14;6.50;99.90
24162;DHT22;12318;51.262;7.066;2023-01-09T06:03:46;6.50;99.90
24162;DHT22;12318;51.262;7.066;2023-01-09T06:06:12;6.40;99.90
24162;DHT22;12318;51.262;7.066;2023-01-09T06:08:39;6.50;99.90
24162;DHT22;12318;51.262;7.066;2023-01-09T06:11:11;6.50;99.90
24162;DHT22;12318;51.262;7.066;2023-01-09T06:13:36;6.50;99.90
24162;DHT22;12318;51.262;7.066;2023-01-09T06:16:05;6.50;99.90
24162;DHT22;12318;51.262;7.066;2023-01-09T06:18:34;6.50;99.90
24162;DHT22;12318;51.262;7.066;2023-01-09T06:21:00;6.50;99.90
24162;DHT22;12318;51.262;7.066;2023-01-09T06:23:29;6.50;99.90
24162;DHT22;12318;51.262;7.066;2023-01-09T06:25:56;6.40;99.90
24162;DHT22;12318;51.262;7.066;2023-01-09T06:28:27;6.40;99.90
24162;DHT22;12318;51.262;7.066;2023-01-09T06:30:57;6.40;99.90
24162;DHT22;12318;51.262;7.066;2023-01-09T06:33:25;6.40;99.90
24162;DHT22;12318;51.262;7.066;2023-01-09T06:35:54;6.40;99.90
24162;DHT22;12318;51.262;7.066;2023-01-09T06:38:23;6.30;99.90
24162;DHT22;12318;51.262;7.066;2023-01-09T06:41:00;6.40;99.90
24162;DHT22;12318;51.262;7.066;2023-01-09T06:43:26;6.40;99.90
24162;DHT22;12318;51.262;7.066;2023-01-09T06:45:59;6.40;99.90
24162;DHT22;12318;51.262;7.066;2023-01-09T06:48:43;6.50;99.90
24162;DHT22;12318;51.262;7.066;2023-01-09T06:51:13;6.50;99.90
24162;DHT22;12318;51.262;7.066;2023-01-09T06:53:42;6.50;99.90
24162;DHT22;12318;51.262;7.066;2023-01-09T06:56:15;6.50;99.90
24162;DHT22;12318;51.262;7.066;2023-01-09T06:58:50;6.50;99.90
24162;DHT22;12318;51.262;7.066;2023-01-09T07:01:25;6.60;99.90
24162;DHT22;12318;51.262;7.066;2023-01-09T07:11:15;6.60;99.90
24162;DHT22;12318;51.262;7.066;2023-01-09T07:13:50;6.60;99.90
24162;DHT22;12318;51.262;7.066;2023-01-09T07:16:29;6.60;99.90
24162;DHT22;12318;51.262;7.066;2023-01-09T07:19:26;6.60;99.90
24162;DHT22;12318;51.262;7.066;2023-01-09T07:21:57;6.60;99.90
24162;DHT22;12318;51.262;7.066;2023-01-09T07:25:10;6.70;99.90
24162;DHT22;12318;51.262;7.066;2023-01-09T07:27:59;6.70;99.90
24162;DHT22;12318;51.262;7.066;2023-01-09T07:30:30;6.60;99.90
24162;DHT22;12318;51.262;7.066;2023-01-09T07:36:40;6.70;99.90
24162;DHT22;12318;51.262;7.066;2023-01-09T07:39:22;6.70;99.90
24162;DHT22;12318;51.262;7.066;2023-01-09T07:42:24;6.70;99.90
24162;DHT22;12318;51.262;7.066;2023-01-09T07:44:49;6.70;99.90
24162;DHT22;12318;51.262;7.066;2023-01-09T07:47:37;6.70;99.90
24162;DHT22;12318;51.262;7.066;2023-01-09T07:50:34;6.70;99.90
24162;DHT22;12318;51.262;7.066;2023-01-09T07:53:00;6.70;99.90
24162;DHT22;12318;51.262;7.066;2023-01-09T07:55:43;6.60;99.90
24162;DHT22;12318;51.262;7.066;2023-01-09T07:58:12;6.70;99.90
24162;DHT22;12318;51.262;7.066;2023-01-09T08:00:47;6.60;99.90
24162;DHT22;12318;51.262;7.066;2023-01-09T08:03:20;6.70;99.90
24162;DHT22;12318;51.262;7.066;2023-01-09T08:05:54;6.60;99.90
24162;DHT22;12318;51.262;7.066;2023-01-09T08:09:07;6.60;99.90
24162;DHT22;12318;51.262;7.066;2023-01-09T08:11:34;6.60;99.90
24162;DHT22;12318;51.262;7.066;2023-01-09T08:14:31;6.60;99.90
24162;DHT22;12318;51.262;7.066;2023-01-09T08:17:10;6.60;99.90
24162;DHT22;12318;51.262;7.066;2023-01-09T08:19:36;6.70;99.90
24162;DHT22;12318;51.262;7.066;2023-01-09T08:22:03;6.70;99.90
24162;DHT22;12318;51.262;7.066;2023-01-09T08:24:36;6.60;99.90
24162;DHT22;12318;51.262;7.066;2023-01-09T08:27:12;6.70;99.90
24162;DHT22;12318;51.262;7.066;2023-01-09T08:29:40;6.70;99.90
24162;DHT22;12318;51.262;7.066;2023-01-09T08:32:07;6.60;99.90
24162;DHT22;12318;51.262;7.066;2023-01-09T08:34:34;6.70;99.90
24162;DHT22;12318;51.262;7.066;2023-01-09T08:37:09;6.70;99.90
24162;DHT22;12318;51.262;7.066;2023-01-09T08:42:41;6.70;99.90
24162;DHT22;12318;51.262;7.066;2023-01-09T08:45:28;6.70;99.90
24162;DHT22;12318;51.262;7.066;2023-01-09T08:51:40;6.70;99.90
24162;DHT22;12318;51.262;7.066;2023-01-09T08:54:17;6.70;99.90
24162;DHT22;12318;51.262;7.066;2023-01-09T09:00:46;6.80;99.90
24162;DHT22;12318;51.262;7.066;2023-01-09T09:03:18;6.80;99.90
24162;DHT22;12318;51.262;7.066;2023-01-09T09:05:45;6.80;99.90
24162;DHT22;12318;51.262;7.066;2023-01-09T09:08:12;6.80;99.90
24162;DHT22;12318;51.262;7.066;2023-01-09T09:10:38;6.80;99.90
24162;DHT22;12318;51.262;7.066;2023-01-09T09:13:04;6.90;99.90
24162;DHT22;12318;51.262;7.066;2023-01-09T09:15:46;6.90;99.90
24162;DHT22;12318;51.262;7.066;2023-01-09T09:21:40;7.00;99.90
24162;DHT22;12318;51.262;7.066;2023-01-09T09:24:32;7.00;99.90
24162;DHT22;12318;51.262;7.066;2023-01-09T09:27:22;7.00;99.90
24162;DHT22;12318;51.262;7.066;2023-01-09T09:30:02;7.00;99.90
24162;DHT22;12318;51.262;7.066;2023-01-09T09:32:43;7.10;99.90
24162;DHT22;12318;51.262;7.066;2023-01-09T09:53:31;7.10;99.90
24162;DHT22;12318;51.262;7.066;2023-01-09T09:56:59;7.20;99.90
24162;DHT22;12318;51.262;7.066;2023-01-09T10:03:33;7.40;99.90
24162;DHT22;12318;51.262;7.066;2023-01-09T10:06:30;7.40;99.90
24162;DHT22;12318;51.262;7.066;2023-01-09T10:12:00;7.60;99.90
24162;DHT22;12318;51.262;7.066;2023-01-09T10:21:44;7.50;99.90
24162;DHT22;12318;51.262;7.066;2023-01-09T10:31:03;7.40;99.90
24162;DHT22;12318;51.262;7.066;2023-01-09T10:37:24;7.60;99.90
24162;DHT22;12318;51.262;7.066;2023-01-09T10:43:55;7.70;99.90
24162;DHT22;12318;51.262;7.066;2023-01-09T10:49:39;7.80;99.90
24162;DHT22;12318;51.262;7.066;2023-01-09T10:52:16;7.80;99.90
24162;DHT22;12318;51.262;7.066;2023-01-09T10:55:06;7.80;99.90
24162;DHT22;12318;51.262;7.066;2023-01-09T10:58:17;8.00;99.90
24162;DHT22;12318;51.262;7.066;2023-01-09T11:04:22;7.90;99.90
24162;DHT22;12318;51.262;7.066;2023-01-09T11:07:22;8.00;99.90
24162;DHT22;12318;51.262;7.066;2023-01-09T11:10:06;7.80;99.90
24162;DHT22;12318;51.262;7.066;2023-01-09T11:12:34;7.80;99.90
24162;DHT22;12318;51.262;7.066;2023-01-09T11:21:33;7.70;99.90
24162;DHT22;12318;51.262;7.066;2023-01-09T11:28:21;7.70;99.90
24162;DHT22;12318;51.262;7.066;2023-01-09T11:34:31;7.70;99.90
24162;DHT22;12318;51.262;7.066;2023-01-09T11:37:25;7.80;99.90
24162;DHT22;12318;51.262;7.066;2023-01-09T11:43:37;7.80;99.90
24162;DHT22;12318;51.262;7.066;2023-01-09T11:46:41;8.00;99.90
24162;DHT22;12318;51.262;7.066;2023-01-09T11:49:39;8.00;99.90
24162;DHT22;12318;51.262;7.066;2023-01-09T12:08:18;8.10;99.90
24162;DHT22;12318;51.262;7.066;2023-01-09T12:11:23;8.10;99.90
24162;DHT22;12318;51.262;7.066;2023-01-09T12:47:46;7.60;99.90
24162;DHT22;12318;51.262;7.066;2023-01-09T12:56:20;7.70;99.90
24162;DHT22;12318;51.262;7.066;2023-01-09T13:02:44;7.80;99.90
24162;DHT22;12318;51.262;7.066;2023-01-09T13:15:23;7.70;99.90
24162;DHT22;12318;51.262;7.066;2023-01-09T13:21:50;7.60;99.90
24162;DHT22;12318;51.262;7.066;2023-01-09T13:27:40;7.60;99.90
24162;DHT22;12318;51.262;7.066;2023-01-09T13:30:54;7.60;99.90
24162;DHT22;12318;51.262;7.066;2023-01-09T13:33:46;7.60;99.90
24162;DHT22;12318;51.262;7.066;2023-01-09T13:36:27;7.50;99.90
24162;DHT22;12318;51.262;7.066;2023-01-09T13:38:57;7.50;99.90
24162;DHT22;12318;51.262;7.066;2023-01-09T13:41:50;7.60;99.90
24162;DHT22;12318;51.262;7.066;2023-01-09T13:44:47;7.70;99.90
24162;DHT22;12318;51.262;7.066;2023-01-09T13:47:23;7.60;99.90
24162;DHT22;12318;51.262;7.066;2023-01-09T13:55:33;7.60;99.90
24162;DHT22;12318;51.262;7.066;2023-01-09T14:01:41;7.50;99.90
24162;DHT22;12318;51.262;7.066;2023-01-09T14:04:39;7.40;99.90
24162;DHT22;12318;51.262;7.066;2023-01-09T14:07:46;7.50;99.90
24162;DHT22;12318;51.262;7.066;2023-01-09T14:10:36;7.50;99.90
24162;DHT22;12318;51.262;7.066;2023-01-09T14:13:19;7.40;99.90
24162;DHT22;12318;51.262;7.066;2023-01-09T14:15:46;7.40;99.90
24162;DHT22;12318;51.262;7.066;2023-01-09T14:18:25;7.50;99.90
24162;DHT22;12318;51.262;7.066;2023-01-09T14:21:08;7.60;99.90
24162;DHT22;12318;51.262;7.066;2023-01-09T14:24:03;7.60;99.90
24162;DHT22;12318;51.262;7.066;2023-01-09T14:30:15;7.60;99.90
24162;DHT22;12318;51.262;7.066;2023-01-09T14:32:44;7.60;99.90
24162;DHT22;12318;51.262;7.066;2023-01-09T14:40:52;7.50;99.90
24162;DHT22;12318;51.262;7.066;2023-01-09T14:43:41;7.50;99.90
24162;DHT22;12318;51.262;7.066;2023-01-09T14:46:15;7.50;99.90
24162;DHT22;12318;51.262;7.066;2023-01-09T14:49:11;7.50;99.90
24162;DHT22;12318;51.262;7.066;2023-01-09T14:51:44;7.40;99.90
24162;DHT22;12318;51.262;7.066;2023-01-09T14:54:34;7.40;99.90
24162;DHT22;12318;51.262;7.066;2023-01-09T14:57:02;7.40;99.90
24162;DHT22;12318;51.262;7.066;2023-01-09T14:59:28;7.40;99.90
24162;DHT22;12318;51.262;7.066;2023-01-09T15:01:55;7.40;99.90
24162;DHT22;12318;51.262;7.066;2023-01-09T15:04:32;7.30;99.90
24162;DHT22;12318;51.262;7.066;2023-01-09T15:07:02;7.30;99.90
24162;DHT22;12318;51.262;7.066;2023-01-09T15:09:58;7.30;99.90
24162;DHT22;12318;51.262;7.066;2023-01-09T15:12:27;7.20;99.90
24162;DHT22;12318;51.262;7.066;2023-01-09T15:14:57;7.20;99.90
24162;DHT22;12318;51.262;7.066;2023-01-09T15:17:33;7.20;99.90
24162;DHT22;12318;51.262;7.066;2023-01-09T15:20:03;7.20;99.90
24162;DHT22;12318;51.262;7.066;2023-01-09T15:22:34;7.10;99.90
24162;DHT22;12318;51.262;7.066;2023-01-09T15:27:54;7.10;99.90
24162;DHT22;12318;51.262;7.066;2023-01-09T15:30:30;7.10;99.90
24162;DHT22;12318;51.262;7.066;2023-01-09T15:33:15;7.00;99.90
24162;DHT22;12318;51.262;7.066;2023-01-09T15:35:45;7.00;99.90
24162;DHT22;12318;51.262;7.066;2023-01-09T15:38:21;7.10;99.90
24162;DHT22;12318;51.262;7.066;2023-01-09T15:40:57;7.10;99.90
24162;DHT22;12318;51.262;7.066;2023-01-09T15:43:25;7.10;99.90
24162;DHT22;12318;51.262;7.066;2023-01-09T15:45:52;7.10;99.90
24162;DHT22;12318;51.262;7.066;2023-01-09T15:48:35;7.10;99.90
24162;DHT22;12318;51.262;7.066;2023-01-09T15:51:13;7.00;99.90
24162;DHT22;12318;51.262;7.066;2023-01-09T15:53:43;7.10;99.90
24162;DHT22;12318;51.262;7.066;2023-01-09T15:56:25;7.20;99.90
24162;DHT22;12318;51.262;7.066;2023-01-09T15:58:56;7.10;99.90
24162;DHT22;12318;51.262;7.066;2023-01-09T16:01:39;7.10;99.90
24162;DHT22;12318;51.262;7.066;2023-01-09T16:04:17;7.00;99.90
24162;DHT22;12318;51.262;7.066;2023-01-09T16:06:51;7.00;99.90
24162;DHT22;12318;51.262;7.066;2023-01-09T16:09:28;7.00;99.90
24162;DHT22;12318;51.262;7.066;2023-01-09T16:11:58;7.10;99.90
24162;DHT22;12318;51.262;7.066;2023-01-09T16:14:37;7.10;99.90
24162;DHT22;12318;51.262;7.066;2023-01-09T16:20:12;7.10;99.90
24162;DHT22;12318;51.262;7.066;2023-01-09T16:22:53;7.20;99.90
24162;DHT22;12318;51.262;7.066;2023-01-09T16:28:23;7.00;99.90
24162;DHT22;12318;51.262;7.066;2023-01-09T16:31:23;7.10;99.90
24162;DHT22;12318;51.262;7.066;2023-01-09T16:34:03;7.10;99.90
24162;DHT22;12318;51.262;7.066;2023-01-09T16:36:33;7.10;99.90
24162;DHT22;12318;51.262;7.066;2023-01-09T16:39:30;7.10;99.90
24162;DHT22;12318;51.262;7.066;2023-01-09T16:41:56;7.00;99.90
24162;DHT22;12318;51.262;7.066;2023-01-09T16:44:41;7.00;99.90
24162;DHT22;12318;51.262;7.066;2023-01-09T16:47:11;6.90;99.90
24162;DHT22;12318;51.262;7.066;2023-01-09T16:49:42;6.90;99.90
24162;DHT22;12318;51.262;7.066;2023-01-09T16:52:16;7.00;99.90
24162;DHT22;12318;51.262;7.066;2023-01-09T16:54:43;7.00;99.90
24162;DHT22;12318;51.262;7.066;2023-01-09T16:57:15;6.90;99.90
24162;DHT22;12318;51.262;7.066;2023-01-09T16:59:44;7.00;99.90
24162;DHT22;12318;51.262;7.066;2023-01-09T17:02:19;7.00;99.90
24162;DHT22;12318;51.262;7.066;2023-01-09T17:04:45;6.90;99.90
24162;DHT22;12318;51.262;7.066;2023-01-09T17:07:14;6.90;99.90
24162;DHT22;12318;51.262;7.066;2023-01-09T17:09:40;6.80;99.90
24162;DHT22;12318;51.262;7.066;2023-01-09T17:12:21;6.80;99.90
24162;DHT22;12318;51.262;7.066;2023-01-09T17:14:52;6.80;99.90
24162;DHT22;12318;51.262;7.066;2023-01-09T17:17:17;6.80;99.90
24162;DHT22;12318;51.262;7.066;2023-01-09T17:19:45;6.80;99.90
24162;DHT22;12318;51.262;7.066;2023-01-09T17:22:17;6.80;99.90
24162;DHT22;12318;51.262;7.066;2023-01-09T17:24:45;6.80;99.90
24162;DHT22;12318;51.262;7.066;2023-01-09T17:27:35;6.80;99.90
24162;DHT22;12318;51.262;7.066;2023-01-09T17:30:23;6.80;99.90
24162;DHT22;12318;51.262;7.066;2023-01-09T17:32:49;6.80;99.90
24162;DHT22;12318;51.262;7.066;2023-01-09T17:35:15;6.80;99.90
24162;DHT22;12318;51.262;7.066;2023-01-09T17:37:41;6.90;99.90
24162;DHT22;12318;51.262;7.066;2023-01-09T17:40:21;6.90;99.90
24162;DHT22;12318;51.262;7.066;2023-01-09T17:42:47;6.80;99.90
24162;DHT22;12318;51.262;7.066;2023-01-09T17:45:14;6.90;99.90
24162;DHT22;12318;51.262;7.066;2023-01-09T17:47:40;6.90;99.90
24162;DHT22;12318;51.262;7.066;2023-01-09T17:50:19;6.80;99.90
24162;DHT22;12318;51.262;7.066;2023-01-09T17:52:47;6.90;99.90
24162;DHT22;12318;51.262;7.066;2023-01-09T17:55:16;7.00;99.90
24162;DHT22;12318;51.262;7.066;2023-01-09T17:57:45;6.90;99.90
24162;DHT22;12318;51.262;7.066;2023-01-09T18:00:33;6.90;99.90
24162;DHT22;12318;51.262;7.066;2023-01-09T18:03:02;6.90;99.90
24162;DHT22;12318;51.262;7.066;2023-01-09T18:05:29;7.00;99.90
24162;DHT22;12318;51.262;7.066;2023-01-09T18:08:03;6.90;99.90
24162;DHT22;12318;51.262;7.066;2023-01-09T18:10:33;6.80;99.90
24162;DHT22;12318;51.262;7.066;2023-01-09T18:12:59;6.80;99.90
24162;DHT22;12318;51.262;7.066;2023-01-09T18:15:25;6.80;99.90
24162;DHT22;12318;51.262;7.066;2023-01-09T18:18:00;6.90;99.90
24162;DHT22;12318;51.262;7.066;2023-01-09T18:20:27;6.90;99.90
24162;DHT22;12318;51.262;7.066;2023-01-09T18:22:53;6.80;99.90
24162;DHT22;12318;51.262;7.066;2023-01-09T18:25:18;6.80;99.90
24162;DHT22;12318;51.262;7.066;2023-01-09T18:27:47;6.80;99.90
24162;DHT22;12318;51.262;7.066;2023-01-09T18:30:23;6.80;99.90
24162;DHT22;12318;51.262;7.066;2023-01-09T18:32:52;6.90;99.90
24162;DHT22;12318;51.262;7.066;2023-01-09T18:35:19;6.80;99.90
24162;DHT22;12318;51.262;7.066;2023-01-09T18:37:48;6.80;99.90
24162;DHT22;12318;51.262;7.066;2023-01-09T18:40:21;6.80;99.90
24162;DHT22;12318;51.262;7.066;2023-01-09T18:42:55;6.90;99.90
24162;DHT22;12318;51.262;7.066;2023-01-09T18:45:22;6.80;99.90
24162;DHT22;12318;51.262;7.066;2023-01-09T18:47:52;6.80;99.90
24162;DHT22;12318;51.262;7.066;2023-01-09T18:50:18;6.80;99.90
24162;DHT22;12318;51.262;7.066;2023-01-09T18:52:48;6.70;99.90
24162;DHT22;12318;51.262;7.066;2023-01-09T18:55:14;6.70;99.90
24162;DHT22;12318;51.262;7.066;2023-01-09T18:57:41;6.70;99.90
24162;DHT22;12318;51.262;7.066;2023-01-09T19:00:09;6.70;99.90
24162;DHT22;12318;51.262;7.066;2023-01-09T19:02:41;6.70;99.90
24162;DHT22;12318;51.262;7.066;2023-01-09T19:05:11;6.60;99.90
24162;DHT22;12318;51.262;7.066;2023-01-09T19:07:39;6.70;99.90
24162;DHT22;12318;51.262;7.066;2023-01-09T19:10:08;6.70;99.90
24162;DHT22;12318;51.262;7.066;2023-01-09T19:12:35;6.70;99.90
24162;DHT22;12318;51.262;7.066;2023-01-09T19:15:00;6.80;99.90
24162;DHT22;12318;51.262;7.066;2023-01-09T19:17:33;6.70;99.90
24162;DHT22;12318;51.262;7.066;2023-01-09T19:19:59;6.70;99.90
24162;DHT22;12318;51.262;7.066;2023-01-09T19:22:24;6.80;99.90
24162;DHT22;12318;51.262;7.066;2023-01-09T19:24:51;6.80;99.90
24162;DHT22;12318;51.262;7.066;2023-01-09T19:27:27;6.80;99.90
24162;DHT22;12318;51.262;7.066;2023-01-09T19:29:55;6.80;99.90
24162;DHT22;12318;51.262;7.066;2023-01-09T19:32:23;6.80;99.90
24162;DHT22;12318;51.262;7.066;2023-01-09T19:34:48;6.80;99.90
24162;DHT22;12318;51.262;7.066;2023-01-09T19:37:35;6.80;99.90
24162;DHT22;12318;51.262;7.066;2023-01-09T19:40:02;6.90;99.90
24162;DHT22;12318;51.262;7.066;2023-01-09T19:42:28;6.80;99.90
24162;DHT22;12318;51.262;7.066;2023-01-09T19:44:55;6.90;99.90
24162;DHT22;12318;51.262;7.066;2023-01-09T19:47:22;7.00;99.90
24162;DHT22;12318;51.262;7.066;2023-01-09T19:49:48;6.90;99.90
24162;DHT22;12318;51.262;7.066;2023-01-09T19:52:14;6.90;99.90
24162;DHT22;12318;51.262;7.066;2023-01-09T19:54:41;6.90;99.90
24162;DHT22;12318;51.262;7.066;2023-01-09T19:57:06;7.00;99.90
24162;DHT22;12318;51.262;7.066;2023-01-09T19:59:32;7.00;99.90
24162;DHT22;12318;51.262;7.066;2023-01-09T20:02:22;6.90;99.90
24162;DHT22;12318;51.262;7.066;2023-01-09T20:04:48;6.90;99.90
24162;DHT22;12318;51.262;7.066;2023-01-09T20:07:15;6.90;99.90
24162;DHT22;12318;51.262;7.066;2023-01-09T20:09:41;7.00;99.90
24162;DHT22;12318;51.262;7.066;2023-01-09T20:12:07;6.90;99.90
24162;DHT22;12318;51.262;7.066;2023-01-09T20:14:34;6.90;99.90